sensor_id;sensor_type;location;lat;lon;timestamp;P1;durP1;ratioP1;P2;durP2;ratioP2
30247;SDS011;17063;50.892;4.702;2023-02-28T00:01:32;6.13;;;3.67;;
30247;SDS011;17063;50.892;4.702;2023-02-28T00:03:59;7.57;;;3.95;;
30247;SDS011;17063;50.892;4.702;2023-02-28T00:06:26;6.22;;;3.58;;
30247;SDS011;17063;50.892;4.702;2023-02-28T00:08:53;8.00;;;3.80;;
30247;SDS011;17063;50.892;4.702;2023-02-28T00:11:20;6.25;;;3.63;;
30247;SDS011;17063;50.892;4.702;2023-02-28T00:13:48;5.65;;;3.30;;
30247;SDS011;17063;50.892;4.702;2023-02-28T00:16:18;8.50;;;3.30;;
30247;SDS011;17063;50.892;4.702;2023-02-28T00:18:47;6.55;;;3.38;;
30247;SDS011;17063;50.892;4.702;2023-02-28T00:21:14;7.32;;;4.15;;
30247;SDS011;17063;50.892;4.702;2023-02-28T00:23:43;8.15;;;3.70;;
30247;SDS011;17063;50.892;4.702;2023-02-28T00:26:30;6.97;;;3.72;;
30247;SDS011;17063;50.892;4.702;2023-02-28T00:28:57;7.45;;;3.70;;
30247;SDS011;17063;50.892;4.702;2023-02-28T00:31:24;6.00;;;3.15;;
30247;SDS011;17063;50.892;4.702;2023-02-28T00:33:52;7.13;;;3.25;;
30247;SDS011;17063;50.892;4.702;2023-02-28T00:36:19;6.13;;;3.40;;
30247;SDS011;17063;50.892;4.702;2023-02-28T00:38:46;9.35;;;3.22;;
30247;SDS011;17063;50.892;4.702;2023-02-28T00:41:13;5.57;;;3.28;;
30247;SDS011;17063;50.892;4.702;2023-02-28T00:43:40;7.82;;;3.90;;
30247;SDS011;17063;50.892;4.702;2023-02-28T00:46:07;8.75;;;3.72;;
30247;SDS011;17063;50.892;4.702;2023-02-28T00:48:34;7.82;;;3.65;;
30247;SDS011;17063;50.892;4.702;2023-02-28T00:51:02;5.20;;;3.30;;
30247;SDS011;17063;50.892;4.702;2023-02-28T00:53:30;6.75;;;3.47;;
30247;SDS011;17063;50.892;4.702;2023-02-28T00:55:58;8.23;;;3.55;;
30247;SDS011;17063;50.892;4.702;2023-02-28T00:58:25;9.18;;;3.15;;
30247;SDS011;17063;50.892;4.702;2023-02-28T01:00:53;7.53;;;3.40;;
30247;SDS011;17063;50.892;4.702;2023-02-28T01:03:20;6.60;;;3.33;;
30247;SDS011;17063;50.892;4.702;2023-02-28T01:05:48;6.18;;;3.20;;
30247;SDS011;17063;50.892;4.702;2023-02-28T01:08:15;6.15;;;3.90;;
30247;SDS011;17063;50.892;4.702;2023-02-28T01:10:42;9.98;;;3.72;;
30247;SDS011;17063;50.892;4.702;2023-02-28T01:13:10;6.22;;;3.88;;
30247;SDS011;17063;50.892;4.702;2023-02-28T01:15:38;6.68;;;3.60;;
30247;SDS011;17063;50.892;4.702;2023-02-28T01:18:09;9.82;;;3.60;;
30247;SDS011;17063;50.892;4.702;2023-02-28T01:20:37;6.65;;;3.75;;
30247;SDS011;17063;50.892;4.702;2023-02-28T01:23:04;7.03;;;3.28;;
30247;SDS011;17063;50.892;4.702;2023-02-28T01:25:36;7.72;;;3.65;;
30247;SDS011;17063;50.892;4.702;2023-02-28T01:28:04;6.38;;;3.30;;
30247;SDS011;17063;50.892;4.702;2023-02-28T01:30:33;5.70;;;3.47;;
30247;SDS011;17063;50.892;4.702;2023-02-28T01:33:00;6.30;;;3.38;;
30247;SDS011;17063;50.892;4.702;2023-02-28T01:35:26;13.10;;;3.83;;
30247;SDS011;17063;50.892;4.702;2023-02-28T01:37:53;9.50;;;3.70;;
30247;SDS011;17063;50.892;4.702;2023-02-28T01:40:20;7.57;;;3.88;;
30247;SDS011;17063;50.892;4.702;2023-02-28T01:42:47;9.70;;;3.55;;
30247;SDS011;17063;50.892;4.702;2023-02-28T01:45:27;9.95;;;4.18;;
30247;SDS011;17063;50.892;4.702;2023-02-28T01:47:58;8.68;;;4.03;;
30247;SDS011;17063;50.892;4.702;2023-02-28T01:50:28;9.18;;;3.78;;
30247;SDS011;17063;50.892;4.702;2023-02-28T01:52:58;12.13;;;3.67;;
30247;SDS011;17063;50.892;4.702;2023-02-28T01:55:30;5.63;;;3.72;;
30247;SDS011;17063;50.892;4.702;2023-02-28T01:57:58;7.03;;;3.83;;
30247;SDS011;17063;50.892;4.702;2023-02-28T02:00:27;9.75;;;4.03;;
30247;SDS011;17063;50.892;4.702;2023-02-28T02:02:57;7.47;;;3.85;;
30247;SDS011;17063;50.892;4.702;2023-02-28T02:05:26;10.23;;;3.78;;
30247;SDS011;17063;50.892;4.702;2023-02-28T02:07:58;9.73;;;3.90;;
30247;SDS011;17063;50.892;4.702;2023-02-28T02:10:50;6.40;;;3.55;;
30247;SDS011;17063;50.892;4.702;2023-02-28T02:30:20;9.00;;;3.83;;
30247;SDS011;17063;50.892;4.702;2023-02-28T02:33:28;8.10;;;4.00;;
30247;SDS011;17063;50.892;4.702;2023-02-28T02:38:34;7.38;;;3.60;;
30247;SDS011;17063;50.892;4.702;2023-02-28T02:41:09;6.32;;;3.92;;
30247;SDS011;17063;50.892;4.702;2023-02-28T02:46:39;5.65;;;3.72;;
30247;SDS011;17063;50.892;4.702;2023-02-28T02:49:09;7.25;;;3.80;;
30247;SDS011;17063;50.892;4.702;2023-02-28T02:51:48;7.47;;;4.07;;
30247;SDS011;17063;50.892;4.702;2023-02-28T02:54:17;6.72;;;3.58;;
30247;SDS011;17063;50.892;4.702;2023-02-28T02:56:48;6.45;;;4.85;;
30247;SDS011;17063;50.892;4.702;2023-02-28T02:59:18;7.75;;;4.22;;
30247;SDS011;17063;50.892;4.702;2023-02-28T03:01:57;5.32;;;4.15;;
30247;SDS011;17063;50.892;4.702;2023-02-28T03:04:27;7.32;;;4.10;;
30247;SDS011;17063;50.892;4.702;2023-02-28T03:06:57;7.88;;;4.65;;
30247;SDS011;17063;50.892;4.702;2023-02-28T03:09:25;7.82;;;4.03;;
30247;SDS011;17063;50.892;4.702;2023-02-28T03:11:54;6.85;;;4.43;;
30247;SDS011;17063;50.892;4.702;2023-02-28T03:14:28;12.27;;;4.55;;
30247;SDS011;17063;50.892;4.702;2023-02-28T03:17:03;7.75;;;4.35;;
30247;SDS011;17063;50.892;4.702;2023-02-28T03:23:38;7.82;;;3.88;;
30247;SDS011;17063;50.892;4.702;2023-02-28T03:25:59;6.53;;;4.07;;
30247;SDS011;17063;50.892;4.702;2023-02-28T03:31:10;13.82;;;4.20;;
30247;SDS011;17063;50.892;4.702;2023-02-28T03:33:40;8.23;;;4.32;;
30247;SDS011;17063;50.892;4.702;2023-02-28T03:36:11;7.35;;;4.18;;
30247;SDS011;17063;50.892;4.702;2023-02-28T03:44:21;8.05;;;4.40;;
30247;SDS011;17063;50.892;4.702;2023-02-28T03:47:04;10.38;;;4.78;;
30247;SDS011;17063;50.892;4.702;2023-02-28T03:49:36;8.75;;;4.75;;
30247;SDS011;17063;50.892;4.702;2023-02-28T03:52:10;10.60;;;4.68;;
30247;SDS011;17063;50.892;4.702;2023-02-28T03:54:44;9.07;;;4.90;;
30247;SDS011;17063;50.892;4.702;2023-02-28T04:00:20;8.98;;;4.45;;
30247;SDS011;17063;50.892;4.702;2023-02-28T04:02:48;10.43;;;4.75;;
30247;SDS011;17063;50.892;4.702;2023-02-28T04:05:19;8.63;;;4.90;;
30247;SDS011;17063;50.892;4.702;2023-02-28T04:07:47;10.45;;;5.47;;
30247;SDS011;17063;50.892;4.702;2023-02-28T04:10:15;12.55;;;5.07;;
30247;SDS011;17063;50.892;4.702;2023-02-28T04:12:42;10.20;;;4.93;;
30247;SDS011;17063;50.892;4.702;2023-02-28T04:15:09;8.05;;;4.80;;
30247;SDS011;17063;50.892;4.702;2023-02-28T04:17:37;11.50;;;5.30;;
30247;SDS011;17063;50.892;4.702;2023-02-28T04:20:05;10.13;;;5.22;;
30247;SDS011;17063;50.892;4.702;2023-02-28T04:22:36;8.50;;;4.45;;
30247;SDS011;17063;50.892;4.702;2023-02-28T04:25:03;10.77;;;5.43;;
30247;SDS011;17063;50.892;4.702;2023-02-28T04:27:32;9.00;;;4.90;;
30247;SDS011;17063;50.892;4.702;2023-02-28T04:29:59;13.25;;;5.07;;
30247;SDS011;17063;50.892;4.702;2023-02-28T04:32:26;8.55;;;4.95;;
30247;SDS011;17063;50.892;4.702;2023-02-28T04:34:52;10.77;;;5.55;;
30247;SDS011;17063;50.892;4.702;2023-02-28T04:37:19;9.05;;;5.10;;
30247;SDS011;17063;50.892;4.702;2023-02-28T04:39:46;10.82;;;5.20;;
30247;SDS011;17063;50.892;4.702;2023-02-28T04:42:13;8.43;;;5.53;;
30247;SDS011;17063;50.892;4.702;2023-02-28T04:44:40;11.43;;;5.30;;
30247;SDS011;17063;50.892;4.702;2023-02-28T04:47:07;10.40;;;5.18;;
30247;SDS011;17063;50.892;4.702;2023-02-28T04:49:34;11.63;;;6.05;;
30247;SDS011;17063;50.892;4.702;2023-02-28T04:52:01;12.95;;;5.65;;
30247;SDS011;17063;50.892;4.702;2023-02-28T04:54:28;9.30;;;5.40;;
30247;SDS011;17063;50.892;4.702;2023-02-28T04:56:55;11.15;;;5.28;;
30247;SDS011;17063;50.892;4.702;2023-02-28T04:59:22;8.85;;;4.80;;
30247;SDS011;17063;50.892;4.702;2023-02-28T05:01:49;11.35;;;5.65;;
30247;SDS011;17063;50.892;4.702;2023-02-28T05:04:16;12.18;;;5.88;;
30247;SDS011;17063;50.892;4.702;2023-02-28T05:06:43;9.35;;;5.93;;
30247;SDS011;17063;50.892;4.702;2023-02-28T05:09:10;10.48;;;5.60;;
30247;SDS011;17063;50.892;4.702;2023-02-28T05:11:40;11.55;;;5.72;;
30247;SDS011;17063;50.892;4.702;2023-02-28T05:14:09;11.63;;;5.28;;
30247;SDS011;17063;50.892;4.702;2023-02-28T05:16:38;8.98;;;5.30;;
30247;SDS011;17063;50.892;4.702;2023-02-28T05:19:05;12.48;;;5.18;;
30247;SDS011;17063;50.892;4.702;2023-02-28T05:21:33;12.38;;;5.78;;
30247;SDS011;17063;50.892;4.702;2023-02-28T05:24:03;12.05;;;5.53;;
30247;SDS011;17063;50.892;4.702;2023-02-28T05:26:33;10.45;;;5.53;;
30247;SDS011;17063;50.892;4.702;2023-02-28T05:29:01;7.82;;;5.05;;
30247;SDS011;17063;50.892;4.702;2023-02-28T05:31:28;8.38;;;5.45;;
30247;SDS011;17063;50.892;4.702;2023-02-28T05:33:55;16.90;;;6.55;;
30247;SDS011;17063;50.892;4.702;2023-02-28T05:36:22;14.52;;;5.57;;
30247;SDS011;17063;50.892;4.702;2023-02-28T05:38:49;11.32;;;5.38;;
30247;SDS011;17063;50.892;4.702;2023-02-28T05:41:17;9.32;;;5.55;;
30247;SDS011;17063;50.892;4.702;2023-02-28T05:43:46;8.95;;;5.55;;
30247;SDS011;17063;50.892;4.702;2023-02-28T05:46:13;12.45;;;6.05;;
30247;SDS011;17063;50.892;4.702;2023-02-28T05:48:40;8.77;;;5.35;;
30247;SDS011;17063;50.892;4.702;2023-02-28T05:51:09;8.98;;;5.90;;
30247;SDS011;17063;50.892;4.702;2023-02-28T05:53:35;9.10;;;5.63;;
30247;SDS011;17063;50.892;4.702;2023-02-28T05:56:02;11.50;;;5.38;;
30247;SDS011;17063;50.892;4.702;2023-02-28T05:58:30;13.05;;;5.88;;
30247;SDS011;17063;50.892;4.702;2023-02-28T06:00:58;10.90;;;5.10;;
30247;SDS011;17063;50.892;4.702;2023-02-28T06:03:25;10.40;;;5.47;;
30247;SDS011;17063;50.892;4.702;2023-02-28T06:05:52;11.07;;;5.25;;
30247;SDS011;17063;50.892;4.702;2023-02-28T06:08:19;8.63;;;5.20;;
30247;SDS011;17063;50.892;4.702;2023-02-28T06:10:46;7.75;;;5.07;;
30247;SDS011;17063;50.892;4.702;2023-02-28T06:13:13;8.52;;;5.20;;
30247;SDS011;17063;50.892;4.702;2023-02-28T06:15:40;8.90;;;5.40;;
30247;SDS011;17063;50.892;4.702;2023-02-28T06:18:07;9.50;;;5.25;;
30247;SDS011;17063;50.892;4.702;2023-02-28T06:20:34;16.27;;;6.40;;
30247;SDS011;17063;50.892;4.702;2023-02-28T06:23:02;14.38;;;6.05;;
30247;SDS011;17063;50.892;4.702;2023-02-28T06:25:29;11.82;;;5.78;;
30247;SDS011;17063;50.892;4.702;2023-02-28T06:27:56;10.30;;;5.40;;
30247;SDS011;17063;50.892;4.702;2023-02-28T06:30:23;10.60;;;5.53;;
30247;SDS011;17063;50.892;4.702;2023-02-28T06:32:51;12.50;;;5.93;;
30247;SDS011;17063;50.892;4.702;2023-02-28T06:35:19;11.55;;;5.40;;
30247;SDS011;17063;50.892;4.702;2023-02-28T06:37:46;8.55;;;5.20;;
30247;SDS011;17063;50.892;4.702;2023-02-28T06:40:13;12.23;;;5.43;;
30247;SDS011;17063;50.892;4.702;2023-02-28T06:42:41;12.30;;;5.63;;
30247;SDS011;17063;50.892;4.702;2023-02-28T06:45:08;12.93;;;6.28;;
30247;SDS011;17063;50.892;4.702;2023-02-28T06:47:37;9.68;;;5.43;;
30247;SDS011;17063;50.892;4.702;2023-02-28T06:50:05;14.13;;;5.35;;
30247;SDS011;17063;50.892;4.702;2023-02-28T06:52:33;11.55;;;5.53;;
30247;SDS011;17063;50.892;4.702;2023-02-28T06:55:03;9.80;;;5.13;;
30247;SDS011;17063;50.892;4.702;2023-02-28T06:57:32;9.05;;;5.15;;
30247;SDS011;17063;50.892;4.702;2023-02-28T07:00:00;15.73;;;5.45;;
30247;SDS011;17063;50.892;4.702;2023-02-28T07:02:28;9.07;;;5.75;;
30247;SDS011;17063;50.892;4.702;2023-02-28T07:04:55;9.32;;;5.50;;
30247;SDS011;17063;50.892;4.702;2023-02-28T07:07:21;8.38;;;5.18;;
30247;SDS011;17063;50.892;4.702;2023-02-28T07:09:48;11.40;;;5.60;;
30247;SDS011;17063;50.892;4.702;2023-02-28T07:12:15;9.02;;;5.80;;
30247;SDS011;17063;50.892;4.702;2023-02-28T07:14:42;19.67;;;6.80;;
30247;SDS011;17063;50.892;4.702;2023-02-28T07:17:10;19.63;;;6.57;;
30247;SDS011;17063;50.892;4.702;2023-02-28T07:19:38;10.15;;;5.20;;
30247;SDS011;17063;50.892;4.702;2023-02-28T07:22:05;9.77;;;5.35;;
30247;SDS011;17063;50.892;4.702;2023-02-28T07:24:33;16.17;;;5.70;;
30247;SDS011;17063;50.892;4.702;2023-02-28T07:27:00;12.95;;;6.28;;
30247;SDS011;17063;50.892;4.702;2023-02-28T07:29:27;12.15;;;6.18;;
30247;SDS011;17063;50.892;4.702;2023-02-28T07:31:54;10.48;;;5.93;;
30247;SDS011;17063;50.892;4.702;2023-02-28T07:34:22;10.10;;;5.85;;
30247;SDS011;17063;50.892;4.702;2023-02-28T07:36:49;8.32;;;5.65;;
30247;SDS011;17063;50.892;4.702;2023-02-28T07:39:20;10.10;;;5.78;;
30247;SDS011;17063;50.892;4.702;2023-02-28T07:41:59;13.35;;;6.00;;
30247;SDS011;17063;50.892;4.702;2023-02-28T07:44:26;9.60;;;5.47;;
30247;SDS011;17063;50.892;4.702;2023-02-28T07:46:55;8.75;;;5.45;;
30247;SDS011;17063;50.892;4.702;2023-02-28T07:49:22;8.15;;;5.20;;
30247;SDS011;17063;50.892;4.702;2023-02-28T07:51:50;11.18;;;4.60;;
30247;SDS011;17063;50.892;4.702;2023-02-28T07:54:19;13.10;;;5.80;;
30247;SDS011;17063;50.892;4.702;2023-02-28T07:56:47;10.52;;;5.00;;
30247;SDS011;17063;50.892;4.702;2023-02-28T07:59:13;9.23;;;5.18;;
30247;SDS011;17063;50.892;4.702;2023-02-28T08:01:40;7.43;;;4.28;;
30247;SDS011;17063;50.892;4.702;2023-02-28T08:04:07;7.85;;;4.97;;
30247;SDS011;17063;50.892;4.702;2023-02-28T08:06:33;15.35;;;4.70;;
30247;SDS011;17063;50.892;4.702;2023-02-28T08:09:01;4.83;;;3.80;;
30247;SDS011;17063;50.892;4.702;2023-02-28T08:11:28;9.80;;;3.97;;
30247;SDS011;17063;50.892;4.702;2023-02-28T08:13:55;7.53;;;4.10;;
30247;SDS011;17063;50.892;4.702;2023-02-28T08:16:22;7.80;;;3.73;;
30247;SDS011;17063;50.892;4.702;2023-02-28T08:18:49;6.57;;;3.37;;
30247;SDS011;17063;50.892;4.702;2023-02-28T08:21:17;8.87;;;3.50;;
30247;SDS011;17063;50.892;4.702;2023-02-28T08:23:48;6.30;;;3.30;;
30247;SDS011;17063;50.892;4.702;2023-02-28T08:26:16;10.07;;;3.50;;
30247;SDS011;17063;50.892;4.702;2023-02-28T08:28:44;5.10;;;3.17;;
30247;SDS011;17063;50.892;4.702;2023-02-28T08:31:11;9.27;;;3.57;;
30247;SDS011;17063;50.892;4.702;2023-02-28T08:33:41;4.83;;;3.43;;
30247;SDS011;17063;50.892;4.702;2023-02-28T08:36:08;3.43;;;2.70;;
30247;SDS011;17063;50.892;4.702;2023-02-28T08:38:35;8.20;;;3.37;;
30247;SDS011;17063;50.892;4.702;2023-02-28T08:41:04;6.80;;;3.10;;
30247;SDS011;17063;50.892;4.702;2023-02-28T08:43:33;5.50;;;2.80;;
30247;SDS011;17063;50.892;4.702;2023-02-28T08:46:01;3.63;;;2.80;;
30247;SDS011;17063;50.892;4.702;2023-02-28T08:48:28;3.63;;;3.00;;
30247;SDS011;17063;50.892;4.702;2023-02-28T08:51:02;7.30;;;3.10;;
30247;SDS011;17063;50.892;4.702;2023-02-28T08:53:33;5.67;;;3.23;;
30247;SDS011;17063;50.892;4.702;2023-02-28T08:56:00;5.13;;;3.73;;
30247;SDS011;17063;50.892;4.702;2023-02-28T08:58:29;4.57;;;2.77;;
30247;SDS011;17063;50.892;4.702;2023-02-28T09:00:56;6.37;;;2.83;;
30247;SDS011;17063;50.892;4.702;2023-02-28T09:03:23;4.60;;;2.50;;
30247;SDS011;17063;50.892;4.702;2023-02-28T09:05:54;8.47;;;3.07;;
30247;SDS011;17063;50.892;4.702;2023-02-28T09:08:25;9.27;;;3.67;;
30247;SDS011;17063;50.892;4.702;2023-02-28T09:10:54;4.73;;;2.70;;
30247;SDS011;17063;50.892;4.702;2023-02-28T09:13:23;8.53;;;2.93;;
30247;SDS011;17063;50.892;4.702;2023-02-28T09:15:51;6.60;;;2.90;;
30247;SDS011;17063;50.892;4.702;2023-02-28T09:18:19;4.63;;;3.17;;
30247;SDS011;17063;50.892;4.702;2023-02-28T09:20:46;6.73;;;2.87;;
30247;SDS011;17063;50.892;4.702;2023-02-28T09:23:13;7.03;;;2.47;;
30247;SDS011;17063;50.892;4.702;2023-02-28T09:25:46;6.53;;;3.10;;
30247;SDS011;17063;50.892;4.702;2023-02-28T09:28:15;4.47;;;2.70;;
30247;SDS011;17063;50.892;4.702;2023-02-28T09:30:47;4.35;;;2.65;;
30247;SDS011;17063;50.892;4.702;2023-02-28T09:33:16;35.63;;;5.95;;
30247;SDS011;17063;50.892;4.702;2023-02-28T09:35:43;3.37;;;2.20;;
30247;SDS011;17063;50.892;4.702;2023-02-28T09:38:11;4.80;;;2.03;;
30247;SDS011;17063;50.892;4.702;2023-02-28T09:40:39;3.30;;;2.00;;
30247;SDS011;17063;50.892;4.702;2023-02-28T09:43:23;3.50;;;1.90;;
30247;SDS011;17063;50.892;4.702;2023-02-28T09:45:53;3.17;;;2.13;;
30247;SDS011;17063;50.892;4.702;2023-02-28T09:48:29;5.23;;;1.90;;
30247;SDS011;17063;50.892;4.702;2023-02-28T09:51:00;4.35;;;2.03;;
30247;SDS011;17063;50.892;4.702;2023-02-28T09:53:41;2.53;;;2.10;;
30247;SDS011;17063;50.892;4.702;2023-02-28T09:56:18;2.42;;;1.67;;
30247;SDS011;17063;50.892;4.702;2023-02-28T09:58:59;3.50;;;2.10;;
30247;SDS011;17063;50.892;4.702;2023-02-28T10:01:31;3.07;;;2.00;;
30247;SDS011;17063;50.892;4.702;2023-02-28T10:06:51;2.67;;;1.58;;
30247;SDS011;17063;50.892;4.702;2023-02-28T10:09:24;3.30;;;1.67;;
30247;SDS011;17063;50.892;4.702;2023-02-28T10:11:53;5.22;;;1.88;;
30247;SDS011;17063;50.892;4.702;2023-02-28T10:14:28;3.40;;;1.73;;
30247;SDS011;17063;50.892;4.702;2023-02-28T10:17:03;3.33;;;1.83;;
30247;SDS011;17063;50.892;4.702;2023-02-28T10:22:16;2.00;;;1.70;;
30247;SDS011;17063;50.892;4.702;2023-02-28T10:24:45;5.70;;;1.80;;
30247;SDS011;17063;50.892;4.702;2023-02-28T10:27:32;2.05;;;1.85;;
30247;SDS011;17063;50.892;4.702;2023-02-28T10:30:00;2.85;;;2.03;;
30247;SDS011;17063;50.892;4.702;2023-02-28T10:32:32;1.98;;;1.75;;
30247;SDS011;17063;50.892;4.702;2023-02-28T10:37:37;3.83;;;1.95;;
30247;SDS011;17063;50.892;4.702;2023-02-28T10:40:06;2.42;;;1.50;;
30247;SDS011;17063;50.892;4.702;2023-02-28T10:42:34;3.53;;;1.60;;
30247;SDS011;17063;50.892;4.702;2023-02-28T10:47:34;2.97;;;1.67;;
30247;SDS011;17063;50.892;4.702;2023-02-28T10:50:01;5.30;;;1.67;;
30247;SDS011;17063;50.892;4.702;2023-02-28T10:52:46;3.40;;;1.87;;
30247;SDS011;17063;50.892;4.702;2023-02-28T10:55:24;1.83;;;1.63;;
30247;SDS011;17063;50.892;4.702;2023-02-28T10:57:51;2.17;;;1.87;;
30247;SDS011;17063;50.892;4.702;2023-02-28T11:00:20;2.55;;;1.80;;
30247;SDS011;17063;50.892;4.702;2023-02-28T11:02:52;4.00;;;1.75;;
30247;SDS011;17063;50.892;4.702;2023-02-28T11:07:59;4.17;;;1.60;;
30247;SDS011;17063;50.892;4.702;2023-02-28T11:10:29;4.97;;;1.90;;
30247;SDS011;17063;50.892;4.702;2023-02-28T11:12:57;2.05;;;1.52;;
30247;SDS011;17063;50.892;4.702;2023-02-28T11:15:32;4.37;;;1.67;;
30247;SDS011;17063;50.892;4.702;2023-02-28T11:18:00;2.60;;;1.80;;
30247;SDS011;17063;50.892;4.702;2023-02-28T11:20:29;3.22;;;1.90;;
30247;SDS011;17063;50.892;4.702;2023-02-28T11:22:58;2.13;;;1.27;;
30247;SDS011;17063;50.892;4.702;2023-02-28T11:27:56;1.47;;;1.37;;
30247;SDS011;17063;50.892;4.702;2023-02-28T11:30:40;3.45;;;1.40;;
30247;SDS011;17063;50.892;4.702;2023-02-28T11:33:27;3.00;;;1.20;;
30247;SDS011;17063;50.892;4.702;2023-02-28T11:36:00;2.28;;;1.63;;
30247;SDS011;17063;50.892;4.702;2023-02-28T11:38:34;1.90;;;1.40;;
30247;SDS011;17063;50.892;4.702;2023-02-28T11:41:05;1.47;;;1.37;;
30247;SDS011;17063;50.892;4.702;2023-02-28T11:52:06;1.50;;;1.30;;
30247;SDS011;17063;50.892;4.702;2023-02-28T11:54:58;2.17;;;1.40;;
30247;SDS011;17063;50.892;4.702;2023-02-28T11:57:35;1.93;;;1.63;;
30247;SDS011;17063;50.892;4.702;2023-02-28T12:02:54;2.00;;;1.50;;
30247;SDS011;17063;50.892;4.702;2023-02-28T12:05:29;5.50;;;1.57;;
30247;SDS011;17063;50.892;4.702;2023-02-28T12:08:08;1.53;;;1.43;;
30247;SDS011;17063;50.892;4.702;2023-02-28T12:13:37;2.37;;;1.83;;
30247;SDS011;17063;50.892;4.702;2023-02-28T12:27:19;4.03;;;1.70;;
30247;SDS011;17063;50.892;4.702;2023-02-28T12:32:31;5.03;;;1.83;;
30247;SDS011;17063;50.892;4.702;2023-02-28T12:37:37;1.50;;;1.40;;
30247;SDS011;17063;50.892;4.702;2023-02-28T12:40:13;2.47;;;1.60;;
30247;SDS011;17063;50.892;4.702;2023-02-28T12:43:05;4.60;;;1.83;;
30247;SDS011;17063;50.892;4.702;2023-02-28T12:45:42;1.67;;;1.37;;
30247;SDS011;17063;50.892;4.702;2023-02-28T12:48:55;2.03;;;1.60;;
30247;SDS011;17063;50.892;4.702;2023-02-28T12:51:05;2.30;;;1.50;;
30247;SDS011;17063;50.892;4.702;2023-02-28T12:53:47;3.23;;;1.90;;
30247;SDS011;17063;50.892;4.702;2023-02-28T12:58:58;1.77;;;1.63;;
30247;SDS011;17063;50.892;4.702;2023-02-28T13:09:51;1.67;;;1.53;;
30247;SDS011;17063;50.892;4.702;2023-02-28T13:12:19;3.20;;;1.57;;
30247;SDS011;17063;50.892;4.702;2023-02-28T13:14:49;5.03;;;1.60;;
30247;SDS011;17063;50.892;4.702;2023-02-28T13:17:20;2.63;;;1.70;;
30247;SDS011;17063;50.892;4.702;2023-02-28T13:22:35;1.63;;;1.40;;
30247;SDS011;17063;50.892;4.702;2023-02-28T13:28:02;3.13;;;1.50;;
30247;SDS011;17063;50.892;4.702;2023-02-28T13:38:46;6.60;;;1.60;;
30247;SDS011;17063;50.892;4.702;2023-02-28T13:46:33;6.17;;;2.00;;
30247;SDS011;17063;50.892;4.702;2023-02-28T13:49:18;5.97;;;1.70;;
30247;SDS011;17063;50.892;4.702;2023-02-28T13:58:05;4.33;;;1.60;;
30247;SDS011;17063;50.892;4.702;2023-02-28T14:00:51;5.10;;;1.57;;
30247;SDS011;17063;50.892;4.702;2023-02-28T14:11:26;3.47;;;1.80;;
30247;SDS011;17063;50.892;4.702;2023-02-28T14:13:55;2.43;;;1.73;;
30247;SDS011;17063;50.892;4.702;2023-02-28T14:16:26;3.07;;;1.97;;
30247;SDS011;17063;50.892;4.702;2023-02-28T14:19:13;2.57;;;1.83;;
30247;SDS011;17063;50.892;4.702;2023-02-28T14:27:14;3.10;;;2.07;;
30247;SDS011;17063;50.892;4.702;2023-02-28T14:32:33;8.37;;;2.33;;
30247;SDS011;17063;50.892;4.702;2023-02-28T14:37:49;3.17;;;1.80;;
30247;SDS011;17063;50.892;4.702;2023-02-28T14:40:17;4.73;;;2.50;;
30247;SDS011;17063;50.892;4.702;2023-02-28T14:42:55;3.60;;;2.10;;
30247;SDS011;17063;50.892;4.702;2023-02-28T14:45:29;3.43;;;2.10;;
30247;SDS011;17063;50.892;4.702;2023-02-28T14:47:57;4.30;;;2.13;;
30247;SDS011;17063;50.892;4.702;2023-02-28T14:50:35;2.37;;;1.93;;
30247;SDS011;17063;50.892;4.702;2023-02-28T14:53:02;2.90;;;1.70;;
30247;SDS011;17063;50.892;4.702;2023-02-28T14:55:33;4.93;;;2.10;;
30247;SDS011;17063;50.892;4.702;2023-02-28T14:58:05;2.23;;;2.00;;
30247;SDS011;17063;50.892;4.702;2023-02-28T15:00:34;2.03;;;1.67;;
30247;SDS011;17063;50.892;4.702;2023-02-28T15:03:23;3.03;;;1.77;;
30247;SDS011;17063;50.892;4.702;2023-02-28T15:05:55;2.60;;;1.93;;
30247;SDS011;17063;50.892;4.702;2023-02-28T15:08:26;1.83;;;1.70;;
30247;SDS011;17063;50.892;4.702;2023-02-28T15:10:56;5.07;;;1.87;;
30247;SDS011;17063;50.892;4.702;2023-02-28T15:13:51;1.63;;;1.53;;
30247;SDS011;17063;50.892;4.702;2023-02-28T15:16:20;1.97;;;1.80;;
30247;SDS011;17063;50.892;4.702;2023-02-28T15:19:06;3.07;;;1.80;;
30247;SDS011;17063;50.892;4.702;2023-02-28T15:21:35;1.73;;;1.63;;
30247;SDS011;17063;50.892;4.702;2023-02-28T15:24:05;3.50;;;1.97;;
30247;SDS011;17063;50.892;4.702;2023-02-28T15:26:37;5.23;;;2.03;;
30247;SDS011;17063;50.892;4.702;2023-02-28T15:29:17;10.10;;;2.67;;
30247;SDS011;17063;50.892;4.702;2023-02-28T15:31:51;2.53;;;1.80;;
30247;SDS011;17063;50.892;4.702;2023-02-28T15:34:35;2.20;;;2.00;;
30247;SDS011;17063;50.892;4.702;2023-02-28T15:39:57;5.03;;;2.00;;
30247;SDS011;17063;50.892;4.702;2023-02-28T15:43:04;2.30;;;1.80;;
30247;SDS011;17063;50.892;4.702;2023-02-28T15:45:36;3.33;;;1.93;;
30247;SDS011;17063;50.892;4.702;2023-02-28T15:48:23;2.77;;;2.20;;
30247;SDS011;17063;50.892;4.702;2023-02-28T15:50:55;2.77;;;2.10;;
30247;SDS011;17063;50.892;4.702;2023-02-28T15:53:29;2.80;;;2.10;;
30247;SDS011;17063;50.892;4.702;2023-02-28T15:56:02;2.33;;;1.97;;
30247;SDS011;17063;50.892;4.702;2023-02-28T15:58:32;4.27;;;1.97;;
30247;SDS011;17063;50.892;4.702;2023-02-28T16:01:01;2.57;;;1.80;;
30247;SDS011;17063;50.892;4.702;2023-02-28T16:03:43;3.60;;;2.10;;
30247;SDS011;17063;50.892;4.702;2023-02-28T16:09:02;2.77;;;2.00;;
30247;SDS011;17063;50.892;4.702;2023-02-28T16:11:30;2.57;;;1.83;;
30247;SDS011;17063;50.892;4.702;2023-02-28T16:13:58;3.70;;;1.70;;
30247;SDS011;17063;50.892;4.702;2023-02-28T16:16:25;2.60;;;1.80;;
30247;SDS011;17063;50.892;4.702;2023-02-28T16:18:52;3.47;;;2.00;;
30247;SDS011;17063;50.892;4.702;2023-02-28T16:21:19;3.90;;;2.10;;
30247;SDS011;17063;50.892;4.702;2023-02-28T16:23:46;3.77;;;1.70;;
30247;SDS011;17063;50.892;4.702;2023-02-28T16:26:17;4.77;;;1.93;;
30247;SDS011;17063;50.892;4.702;2023-02-28T16:28:46;2.70;;;1.97;;
30247;SDS011;17063;50.892;4.702;2023-02-28T16:31:13;2.60;;;1.90;;
30247;SDS011;17063;50.892;4.702;2023-02-28T16:33:43;3.40;;;2.17;;
30247;SDS011;17063;50.892;4.702;2023-02-28T16:36:15;3.83;;;2.87;;
30247;SDS011;17063;50.892;4.702;2023-02-28T16:38:45;3.13;;;1.90;;
30247;SDS011;17063;50.892;4.702;2023-02-28T16:41:14;4.80;;;2.30;;
30247;SDS011;17063;50.892;4.702;2023-02-28T16:43:49;2.57;;;2.03;;
30247;SDS011;17063;50.892;4.702;2023-02-28T16:46:16;2.63;;;1.87;;
30247;SDS011;17063;50.892;4.702;2023-02-28T16:48:44;2.30;;;1.77;;
30247;SDS011;17063;50.892;4.702;2023-02-28T16:51:12;6.37;;;2.47;;
30247;SDS011;17063;50.892;4.702;2023-02-28T16:53:42;3.47;;;1.90;;
30247;SDS011;17063;50.892;4.702;2023-02-28T16:56:14;2.87;;;2.13;;
30247;SDS011;17063;50.892;4.702;2023-02-28T16:58:43;4.13;;;2.00;;
30247;SDS011;17063;50.892;4.702;2023-02-28T17:01:10;7.13;;;2.30;;
30247;SDS011;17063;50.892;4.702;2023-02-28T17:03:37;5.13;;;2.33;;
30247;SDS011;17063;50.892;4.702;2023-02-28T17:06:10;4.70;;;2.10;;
30247;SDS011;17063;50.892;4.702;2023-02-28T17:08:50;2.27;;;1.90;;
30247;SDS011;17063;50.892;4.702;2023-02-28T17:11:18;2.53;;;2.00;;
30247;SDS011;17063;50.892;4.702;2023-02-28T17:13:45;2.07;;;1.70;;
30247;SDS011;17063;50.892;4.702;2023-02-28T17:16:31;3.03;;;2.27;;
30247;SDS011;17063;50.892;4.702;2023-02-28T17:19:00;4.20;;;2.10;;
30247;SDS011;17063;50.892;4.702;2023-02-28T17:21:30;6.57;;;2.53;;
30247;SDS011;17063;50.892;4.702;2023-02-28T17:23:57;3.37;;;2.23;;
30247;SDS011;17063;50.892;4.702;2023-02-28T17:26:24;4.27;;;2.20;;
30247;SDS011;17063;50.892;4.702;2023-02-28T17:28:52;3.83;;;2.00;;
30247;SDS011;17063;50.892;4.702;2023-02-28T17:31:25;4.13;;;2.00;;